Time;durP1;ratioP1;P1;durP2;ratioP2;P2;SDS_P1;SDS_P2;PMS_P1;PMS_P2;Temp;Humidity;BMP_temperature;BMP_pressure;BME280_temperature;BME280_humidity;BME280_pressure;Samples;Min_cycle;Max_cycle;Signal;HPM_P1;HPM_P2
2022/04/01 00:04:22;;;;;;;59.37;56.20;;;;;;;3.76;100.00;101405.54;1923856;73;33430;-73
2022/04/01 00:10:07;;;;;;;59.50;56.23;;;;;;;3.69;100.00;101403.37;1918080;73;33419;-73
2022/04/01 00:15:55;;;;;;;60.27;56.97;;;;;;;3.62;100.00;101405.34;1929730;73;32937;-73
2022/04/01 00:21:42;;;;;;;63.67;60.27;;;;;;;3.55;100.00;101401.84;1928326;73;33458;-73
2022/04/01 00:27:26;;;;;;;63.77;60.37;;;;;;;3.55;100.00;101411.45;1923090;73;33038;-76
2022/04/01 00:33:11;;;;;;;64.43;60.90;;;;;;;3.56;100.00;101404.86;1933922;73;33511;-75
2022/04/01 00:38:56;;;;;;;65.10;61.67;;;;;;;3.50;100.00;101400.30;1917221;73;34217;-73
2022/04/01 00:44:41;;;;;;;66.53;63.03;;;;;;;3.46;100.00;101394.41;1929282;74;33176;-78
2022/04/01 00:50:27;;;;;;;65.90;62.40;;;;;;;3.48;100.00;101395.02;1922969;73;33037;-80
2022/04/01 00:56:11;;;;;;;66.17;62.57;;;;;;;3.41;100.00;101387.38;1921222;73;33023;-73
2022/04/01 01:01:55;;;;;;;67.23;63.60;;;;;;;3.53;100.00;101404.80;1928448;73;32988;-75
2022/04/01 01:07:42;;;;;;;69.33;65.43;;;;;;;3.68;100.00;101393.44;1934415;73;32983;-76
2022/04/01 01:13:29;;;;;;;68.60;64.60;;;;;;;3.60;100.00;101385.49;1911621;73;32959;-75
2022/04/01 01:19:15;;;;;;;67.50;63.70;;;;;;;3.68;100.00;101387.13;1926122;74;33193;-75
2022/04/01 01:25:01;;;;;;;70.10;66.23;;;;;;;3.55;100.00;101371.63;1939497;73;33112;-77
2022/04/01 01:30:46;;;;;;;70.40;66.50;;;;;;;3.39;100.00;101377.14;1923515;73;32950;-76
2022/04/01 01:36:32;;;;;;;69.43;65.43;;;;;;;3.37;100.00;101373.80;1928287;73;32992;-76
2022/04/01 01:42:17;;;;;;;69.93;65.83;;;;;;;3.31;100.00;101378.80;1911883;73;32947;-75
2022/04/01 01:48:02;;;;;;;70.43;66.23;;;;;;;3.25;100.00;101377.50;1924122;73;33413;-73
2022/04/01 01:59:51;;;;;;;69.60;65.40;;;;;;;3.26;100.00;101386.02;1911553;73;33009;-73
2022/04/01 02:05:36;;;;;;;67.63;63.47;;;;;;;3.29;100.00;101371.34;1934235;74;32998;-73
2022/04/01 02:11:21;;;;;;;66.57;62.60;;;;;;;3.20;100.00;101383.13;1939498;73;33083;-74
2022/04/01 02:17:06;;;;;;;66.37;62.47;;;;;;;3.18;100.00;101372.05;1940684;73;32970;-75
2022/04/01 02:22:52;;;;;;;65.80;61.70;;;;;;;3.20;100.00;101379.02;1929597;73;33033;-75
2022/04/01 02:28:37;;;;;;;68.47;64.53;;;;;;;3.19;100.00;101380.07;1922919;73;32991;-72
2022/04/01 02:34:31;;;;;;;66.80;62.90;;;;;;;3.19;100.00;101386.09;1934205;73;33003;-74
2022/04/01 02:40:15;;;;;;;67.57;63.67;;;;;;;3.24;100.00;101390.91;1922611;73;33480;-74
2022/04/01 02:45:59;;;;;;;65.57;61.47;;;;;;;3.24;100.00;101379.41;1923240;73;33040;-74
2022/04/01 02:51:46;;;;;;;66.87;62.93;;;;;;;3.23;100.00;101377.72;1939471;73;33056;-74
2022/04/01 02:57:31;;;;;;;67.57;63.57;;;;;;;3.13;100.00;101393.30;1939444;73;33512;-72
2022/04/01 03:03:15;;;;;;;67.43;63.57;;;;;;;3.18;100.00;101393.48;1929424;73;33040;-75
2022/04/01 03:09:00;;;;;;;68.70;64.83;;;;;;;3.16;100.00;101397.00;1917009;73;32923;-75
2022/04/01 03:14:44;;;;;;;69.90;65.80;;;;;;;3.15;100.00;101396.68;1917266;73;33405;-77
2022/04/01 03:20:30;;;;;;;67.63;63.67;;;;;;;3.15;100.00;101402.70;1928343;73;33474;-74
2022/04/01 03:26:14;;;;;;;67.23;63.33;;;;;;;3.11;100.00;101406.95;1935183;73;33032;-75
2022/04/01 03:31:58;;;;;;;68.40;64.30;;;;;;;3.08;100.00;101410.16;1939686;73;33067;-81
2022/04/01 03:37:45;;;;;;;69.50;65.50;;;;;;;3.04;100.00;101423.45;1939602;73;33778;-73
2022/04/01 03:43:29;;;;;;;70.80;66.50;;;;;;;3.05;100.00;101410.58;1939556;73;33102;-72
2022/04/01 03:49:18;;;;;;;70.97;66.63;;;;;;;3.07;100.00;101424.93;1934414;73;32933;-75
2022/04/01 03:55:06;;;;;;;68.50;64.30;;;;;;;3.06;100.00;101430.10;1921446;73;33195;-73
2022/04/01 04:00:50;;;;;;;69.97;65.67;;;;;;;3.05;100.00;101437.49;1934185;73;33069;-75
2022/04/01 04:06:37;;;;;;;68.63;64.43;;;;;;;3.05;100.00;101435.27;1917344;73;33463;-74
2022/04/01 04:12:22;;;;;;;70.47;66.27;;;;;;;3.08;100.00;101434.30;1929062;73;33468;-74
2022/04/01 04:18:12;;;;;;;69.63;65.33;;;;;;;3.10;100.00;101438.20;1922779;73;33041;-75
2022/04/01 04:23:59;;;;;;;69.20;64.63;;;;;;;3.09;100.00;101443.37;1934322;73;32917;-73
2022/04/01 04:29:49;;;;;;;68.77;64.43;;;;;;;3.01;100.00;101449.12;1933813;73;33525;-74
2022/04/01 04:35:39;;;;;;;70.47;66.03;;;;;;;3.04;100.00;101440.45;1928725;73;33099;-73
2022/04/01 04:41:25;;;;;;;70.37;65.97;;;;;;;3.01;100.00;101454.09;1917540;73;33019;-74
2022/04/01 04:47:10;;;;;;;68.40;64.27;;;;;;;3.00;100.00;101457.89;1917688;73;33420;-74
2022/04/01 04:52:58;;;;;;;67.07;62.93;;;;;;;2.93;100.00;101450.77;1939667;73;33049;-72
2022/04/01 04:58:43;;;;;;;69.33;65.13;;;;;;;2.97;100.00;101459.71;1928681;73;33445;-74
2022/04/01 05:04:55;;;;;;;66.97;62.97;;;;;;;2.96;100.00;101473.64;1917639;73;33035;-75
2022/04/01 05:07:34;;;;;;;66.97;63.00;;;;;;;2.94;100.00;101479.37;1901834;75;26349;-74
2022/04/01 05:13:25;;;;;;;66.90;63.00;;;;;;;2.97;100.00;101496.76;1940666;73;33539;-74
2022/04/01 05:19:13;;;;;;;68.47;64.47;;;;;;;2.92;100.00;101492.45;1933787;73;33571;-73
2022/04/01 05:25:03;;;;;;;68.17;64.20;;;;;;;2.93;100.00;101490.55;1928474;73;33103;-74
2022/04/01 05:30:52;;;;;;;67.30;63.50;;;;;;;2.85;100.00;101497.67;1935169;74;32907;-75
2022/04/01 05:33:26;;;;;;;64.33;60.33;;;;;;;2.85;100.00;101499.05;1884916;75;26251;-73
2022/04/01 05:39:12;;;;;;;65.53;61.83;;;;;;;2.89;100.00;101515.37;1940261;74;33104;-73
2022/04/01 05:44:57;;;;;;;67.03;63.10;;;;;;;2.80;100.00;101518.90;1939894;73;33110;-74
2022/04/01 05:50:43;;;;;;;67.13;63.23;;;;;;;2.85;100.00;101523.73;1927998;74;32991;-76
2022/04/01 05:56:32;;;;;;;65.93;61.87;;;;;;;2.84;100.00;101537.12;1918237;74;33042;-75
2022/04/01 06:02:41;;;;;;;66.70;62.80;;;;;;;2.82;100.00;101540.11;1922769;73;32921;-76
2022/04/01 06:08:35;;;;;;;69.90;65.63;;;;;;;2.83;100.00;101560.13;1939237;73;33011;-76
2022/04/01 06:14:25;;;;;;;68.07;64.07;;;;;;;2.83;100.00;101562.87;1940334;74;33001;-74
2022/04/01 06:16:59;;;;;;;70.53;66.10;;;;;;;2.79;100.00;101578.09;1909606;75;26232;-75
2022/04/01 06:22:50;;;;;;;67.03;62.93;;;;;;;2.90;100.00;101570.05;1929716;74;32917;-74
2022/04/01 06:28:37;;;;;;;65.70;61.60;;;;;;;2.93;100.00;101575.61;1940316;73;32984;-77
2022/04/01 06:34:28;;;;;;;72.17;67.67;;;;;;;2.99;100.00;101579.72;1939473;73;33584;-77
2022/04/01 06:37:01;;;;;;;66.40;62.50;;;;;;;2.95;100.00;101589.97;1889096;75;26274;-76
2022/04/01 06:39:35;;;;;;;66.50;62.60;;;;;;;2.99;100.00;101587.95;1904583;75;26911;-73
2022/04/01 06:45:22;;;;;;;67.53;63.23;;;;;;;3.13;100.00;101574.98;1935137;73;33441;-74
2022/04/01 06:51:08;;;;;;;65.17;61.17;;;;;;;3.18;100.00;101587.00;1939927;73;32996;-74
2022/04/01 06:56:52;;;;;;;65.67;61.80;;;;;;;3.28;100.00;101577.45;1905947;74;33048;-72
2022/04/01 07:02:36;;;;;;;65.13;61.33;;;;;;;3.46;100.00;101588.03;1928814;73;33437;-75
2022/04/01 07:08:22;;;;;;;66.60;62.60;;;;;;;3.64;100.00;101593.59;1917613;73;32930;-73
2022/04/01 07:14:06;;;;;;;66.70;62.93;;;;;;;3.72;100.00;101600.75;1917050;73;32915;-75
2022/04/01 07:19:50;;;;;;;60.00;56.70;;;;;;;3.88;100.00;101604.33;1934284;73;32980;-79
2022/04/01 07:25:34;;;;;;;62.77;59.37;;;;;;;4.07;100.00;101606.59;1928733;73;33011;-70
2022/04/01 07:37:23;;;;;;;55.13;52.07;;;;;;;4.34;100.00;101627.84;1934248;73;32976;-75
2022/04/01 07:43:08;;;;;;;56.00;52.90;;;;;;;4.47;100.00;101620.31;1911693;73;32958;-74
2022/04/01 07:48:53;;;;;;;53.30;50.33;;;;;;;4.71;100.00;101628.20;1939367;73;33164;-75
2022/04/01 07:54:40;;;;;;;45.93;43.37;;;;;;;4.94;100.00;101624.79;1923940;74;33157;-77
2022/04/01 08:00:28;;;;;;;47.70;44.80;;;;;;;5.29;100.00;101623.63;1923574;73;33476;-74
2022/04/01 08:06:12;;;;;;;39.87;37.50;;;;;;;5.56;100.00;101626.87;1928735;73;32945;-73
2022/04/01 08:11:57;;;;;;;43.10;40.60;;;;;;;5.69;100.00;101624.75;1911646;73;33003;-76
2022/04/01 08:17:41;;;;;;;40.33;38.03;;;;;;;5.83;100.00;101634.52;1939421;73;33117;-73
2022/04/01 08:23:34;;;;;;;36.80;34.70;;;;;;;6.02;100.00;101640.00;1917414;73;32976;-78
2022/04/01 08:29:16;;;;;;;37.67;35.40;;;;;;;6.14;100.00;101645.00;1940817;73;32974;-74
2022/04/01 08:35:00;;;;;;;32.50;30.60;;;;;;;6.31;100.00;101641.86;1939382;73;33059;-72
2022/04/01 08:40:44;;;;;;;33.40;31.50;;;;;;;6.56;100.00;101651.30;1939849;73;33044;-74
2022/04/01 08:46:31;;;;;;;28.70;27.00;;;;;;;6.62;100.00;101664.16;1928261;73;32979;-79
2022/04/01 08:52:17;;;;;;;29.63;28.10;;;;;;;6.68;100.00;101663.17;1922730;73;33577;-77
2022/04/01 08:58:01;;;;;;;28.10;26.43;;;;;;;6.86;100.00;101669.97;1933784;73;33472;-76
2022/04/01 09:03:53;;;;;;;27.90;26.30;;;;;;;6.63;100.00;101682.41;1940184;73;33096;-75
2022/04/01 09:09:37;;;;;;;25.60;24.30;;;;;;;7.00;100.00;101673.33;1928100;73;33093;-78
2022/04/01 09:15:25;;;;;;;24.10;22.70;;;;;;;6.93;100.00;101676.20;1939639;73;33009;-77
2022/04/01 09:21:11;;;;;;;20.63;19.43;;;;;;;7.62;100.00;101672.46;1934807;73;33009;-72
2022/04/01 09:27:00;;;;;;;19.60;18.67;;;;;;;7.31;100.00;101682.61;1939458;73;33000;-78
2022/04/01 09:32:48;;;;;;;18.90;17.97;;;;;;;7.64;100.00;101682.75;1917185;73;32991;-78
2022/04/01 09:38:35;;;;;;;17.70;16.60;;;;;;;7.48;100.00;101681.30;1940305;73;33663;-72
2022/04/01 09:44:23;;;;;;;16.67;15.87;;;;;;;7.60;100.00;101697.30;1934154;73;33023;-76
2022/04/01 09:50:17;;;;;;;17.27;16.13;;;;;;;7.67;100.00;101696.08;1939365;73;33179;-79
2022/04/01 09:56:03;;;;;;;14.67;13.87;;;;;;;7.67;100.00;101687.78;1924808;73;33173;-73
2022/04/01 10:01:47;;;;;;;13.63;12.93;;;;;;;8.07;100.00;101696.58;1911629;73;33080;-78
2022/04/01 10:07:33;;;;;;;13.70;12.90;;;;;;;7.97;100.00;101696.38;1911483;73;32932;-73
2022/04/01 10:13:26;;;;;;;12.37;11.73;;;;;;;8.18;100.00;101697.89;1928198;73;32906;-82
2022/04/01 10:19:13;;;;;;;12.80;11.90;;;;;;;7.71;100.00;101695.88;1928594;73;33188;-73
2022/04/01 10:25:04;;;;;;;12.03;11.30;;;;;;;7.53;100.00;101707.10;1939656;73;33454;-72
2022/04/01 10:30:56;;;;;;;11.93;11.23;;;;;;;7.20;100.00;101706.39;1923191;74;33030;-74
2022/04/01 10:36:43;;;;;;;11.47;10.80;;;;;;;7.90;100.00;101702.07;1917839;73;33460;-72
2022/04/01 10:42:30;;;;;;;11.00;10.40;;;;;;;8.15;100.00;101711.39;1928843;73;32935;-79
2022/04/01 10:54:42;;;;;;;11.00;10.50;;;;;;;8.46;100.00;101705.36;1929229;73;33041;-74
2022/04/01 11:00:29;;;;;;;11.60;11.00;;;;;;;9.04;100.00;101687.44;1916716;73;33021;-78
2022/04/01 11:06:27;;;;;;;10.57;10.00;;;;;;;9.03;100.00;101695.45;1916890;73;33040;-79
2022/04/01 11:12:36;;;;;;;10.13;9.67;;;;;;;8.98;100.00;101705.10;1938981;73;33134;-79
2022/04/01 11:18:25;;;;;;;12.73;12.17;;;;;;;9.12;100.00;101704.47;1911669;74;33511;-75
2022/04/01 11:24:33;;;;;;;13.90;12.97;;;;;;;8.52;100.00;101722.88;1928931;73;33392;-75
2022/04/01 11:30:25;;;;;;;13.53;13.00;;;;;;;8.75;100.00;101710.81;1923139;73;33456;-74
2022/04/01 11:36:10;;;;;;;13.87;13.00;;;;;;;9.35;100.00;101703.97;1928773;73;32939;-72
2022/04/01 11:41:56;;;;;;;11.23;10.50;;;;;;;9.00;100.00;101710.67;1911429;73;33003;-75
2022/04/01 11:47:40;;;;;;;13.40;12.40;;;;;;;8.82;100.00;101712.86;1911438;73;33020;-74
2022/04/01 11:53:31;;;;;;;14.40;13.70;;;;;;;8.99;100.00;101719.23;1928575;73;32992;-74
2022/04/01 11:59:14;;;;;;;10.27;9.60;;;;;;;9.27;100.00;101713.58;1940135;73;33076;-74
2022/04/01 12:04:58;;;;;;;10.57;10.17;;;;;;;9.26;100.00;101702.72;1928620;73;33543;-73
2022/04/01 12:10:43;;;;;;;10.60;10.00;;;;;;;10.15;100.00;101685.22;1911721;73;33002;-74
2022/04/01 12:16:27;;;;;;;11.63;10.80;;;;;;;9.13;100.00;101731.65;1939385;73;33562;-75
2022/04/01 12:22:13;;;;;;;12.03;11.30;;;;;;;7.80;100.00;101762.70;1934786;73;33200;-75
2022/04/01 12:28:00;;;;;;;13.27;12.47;;;;;;;7.80;100.00;101753.02;1934306;73;33443;-75
2022/04/01 12:33:50;;;;;;;13.37;12.57;;;;;;;8.06;100.00;101774.59;1928703;73;32995;-76
2022/04/01 12:39:45;;;;;;;12.47;11.87;;;;;;;8.50;100.00;101772.15;1934454;73;32923;-74
2022/04/01 12:45:30;;;;;;;12.37;11.70;;;;;;;8.23;100.00;101760.27;1929426;73;33405;-83
2022/04/01 12:51:20;;;;;;;12.50;11.70;;;;;;;7.57;100.00;101751.14;1911536;73;33139;-74
2022/04/01 12:57:14;;;;;;;10.53;10.03;;;;;;;8.50;100.00;101742.53;1977420;72;32890;-72
2022/04/01 13:03:03;;;;;;;10.27;9.67;;;;;;;9.42;100.00;101726.80;2002389;71;32818;-73
2022/04/01 13:08:49;;;;;;;10.47;9.70;;;;;;;9.03;100.00;101723.17;2016550;71;32872;-77
2022/04/01 13:14:35;;;;;;;11.13;10.47;;;;;;;8.25;100.00;101737.89;2011219;71;32816;-75
2022/04/01 13:20:26;;;;;;;10.30;9.90;;;;;;;7.77;100.00;101761.28;1991349;71;32817;-82
2022/04/01 13:26:16;;;;;;;10.57;9.77;;;;;;;7.49;100.00;101757.59;2018510;71;33421;-78
2022/04/01 13:32:01;;;;;;;11.27;10.57;;;;;;;8.09;100.00;101762.18;2009356;71;32827;-76
2022/04/01 13:37:46;;;;;;;10.33;9.93;;;;;;;8.48;100.00;101754.39;2009223;71;32818;-75
2022/04/01 13:43:30;;;;;;;10.70;10.20;;;;;;;8.91;100.00;101734.89;2014585;71;32928;-76
2022/04/01 13:49:14;;;;;;;10.70;10.20;;;;;;;9.17;100.00;101736.98;2005919;70;32918;-77
2022/04/01 13:54:59;;;;;;;10.77;10.27;;;;;;;9.46;100.00;101718.25;1989971;71;32818;-75
2022/04/01 14:00:45;;;;;;;12.63;12.03;;;;;;;9.76;100.00;101699.77;1996987;71;32874;-77
2022/04/01 14:06:30;;;;;;;10.47;9.87;;;;;;;10.05;100.00;101706.22;2011816;71;32730;-72
2022/04/01 14:12:14;;;;;;;10.17;9.67;;;;;;;9.55;100.00;101716.71;2003585;71;32806;-72
2022/04/01 14:17:58;;;;;;;9.70;9.20;;;;;;;9.24;100.00;101718.80;1994734;71;33271;-74
2022/04/01 14:23:43;;;;;;;10.30;9.90;;;;;;;9.12;100.00;101717.49;1996838;71;33436;-74
2022/04/01 14:35:30;;;;;;;10.73;10.27;;;;;;;9.32;100.00;101732.22;2000266;71;33269;-77
2022/04/01 14:41:17;;;;;;;10.83;10.23;;;;;;;9.12;100.00;101719.72;2004299;71;32759;-77
2022/04/01 14:47:01;;;;;;;10.37;9.77;;;;;;;9.27;100.00;101716.89;2000122;71;32855;-76
2022/04/01 14:52:46;;;;;;;11.00;10.40;;;;;;;9.56;100.00;101699.82;2009089;71;32819;-73
2022/04/01 14:58:29;;;;;;;11.20;10.70;;;;;;;9.95;100.00;101696.95;1995383;71;33255;-74
2022/04/01 15:04:13;;;;;;;11.93;11.27;;;;;;;10.21;83.50;101690.61;2009910;71;32831;-75
2022/04/01 15:10:00;;;;;;;11.70;11.20;;;;;;;10.26;82.27;101703.16;2003912;71;33302;-75
2022/04/01 15:15:47;;;;;;;11.57;11.03;;;;;;;10.14;80.37;101689.12;2014661;71;32830;-73
2022/04/01 15:21:33;;;;;;;11.27;10.77;;;;;;;10.08;87.72;101704.87;2016510;71;32826;-76
2022/04/01 15:27:17;;;;;;;11.77;10.97;;;;;;;10.02;82.09;101702.58;2014704;71;32815;-77
2022/04/01 15:33:01;;;;;;;11.57;11.07;;;;;;;10.03;87.86;101696.48;2013071;71;32906;-76
2022/04/01 15:38:49;;;;;;;11.50;11.00;;;;;;;9.96;84.33;101710.59;2003923;71;32820;-76
2022/04/01 15:44:36;;;;;;;11.67;11.17;;;;;;;10.10;87.32;101719.31;2002310;71;32760;-72
2022/04/01 15:50:23;;;;;;;11.80;11.07;;;;;;;10.19;87.00;101726.11;2014660;71;33295;-74
2022/04/01 15:56:10;;;;;;;11.90;11.20;;;;;;;10.17;83.51;101724.17;2014540;71;32946;-75
2022/04/01 16:01:59;;;;;;;11.07;10.67;;;;;;;9.77;86.83;101746.69;2011950;71;33418;-81
2022/04/01 16:07:46;;;;;;;10.90;10.47;;;;;;;9.18;86.96;101757.22;2019192;71;32810;-80
2022/04/01 16:13:33;;;;;;;10.80;10.30;;;;;;;8.82;82.65;101764.11;2005517;71;32815;-77
2022/04/01 16:19:19;;;;;;;10.80;10.40;;;;;;;8.61;78.31;101767.92;2004050;71;32753;-73
2022/04/01 16:25:04;;;;;;;11.20;10.70;;;;;;;9.01;81.88;101760.85;1998417;71;33386;-73
2022/04/01 16:30:49;;;;;;;11.77;11.20;;;;;;;8.64;76.81;101770.75;2004130;71;32962;-81
2022/04/01 16:36:33;;;;;;;11.33;10.83;;;;;;;8.74;80.77;101772.30;2000429;71;32757;-77
2022/04/01 16:42:18;;;;;;;11.43;10.93;;;;;;;9.16;83.17;101774.09;2009649;71;32769;-73
2022/04/01 16:48:03;;;;;;;11.70;11.20;;;;;;;9.08;79.85;101785.61;2009645;71;33383;-73
2022/04/01 16:53:47;;;;;;;11.20;10.80;;;;;;;8.91;81.18;101798.08;1998287;71;32824;-73
2022/04/01 16:59:33;;;;;;;11.73;11.23;;;;;;;8.87;89.32;101802.98;1992178;71;33501;-77
2022/04/01 17:12:31;;;;;;;12.70;11.90;;;;;;;8.66;100.00;101810.11;1998475;71;32816;-72
2022/04/01 17:17:25;;;;;;;11.00;10.50;;;;;;;8.32;100.00;101827.17;2007964;71;32964;-77
2022/04/01 17:23:11;;;;;;;11.23;10.73;;;;;;;8.18;100.00;101839.58;2015069;71;32813;-74
2022/04/01 17:28:56;;;;;;;11.30;10.80;;;;;;;8.00;100.00;101842.53;2009723;71;32816;-73
2022/04/01 17:34:44;;;;;;;11.37;10.80;;;;;;;7.91;100.00;101855.06;2013267;71;32884;-72
2022/04/01 17:40:31;;;;;;;12.10;11.40;;;;;;;7.91;100.00;101860.59;1998650;70;32917;-71
2022/04/01 17:46:17;;;;;;;11.80;11.07;;;;;;;7.85;100.00;101867.08;2013057;71;32821;-72
2022/04/01 17:52:02;;;;;;;11.37;10.77;;;;;;;7.81;100.00;101878.34;2007806;71;32827;-71
2022/04/01 17:57:47;;;;;;;10.90;10.30;;;;;;;7.26;100.00;101789.72;1862883;70;33269;-75
2022/04/01 18:03:37;;;;;;;10.50;10.00;;;;;;;7.70;100.00;101893.30;2006135;71;32898;-77
2022/04/01 18:09:26;;;;;;;11.20;10.70;;;;;;;7.66;100.00;101895.40;2015167;71;32884;-71
2022/04/01 18:15:14;;;;;;;11.10;10.60;;;;;;;7.52;100.00;101900.35;2004486;71;32770;-75
2022/04/01 18:20:59;;;;;;;10.63;10.23;;;;;;;7.48;100.00;101923.19;2009642;71;32821;-74
2022/04/01 18:26:47;;;;;;;12.03;11.07;;;;;;;7.35;100.00;101927.02;2004380;71;32884;-73
2022/04/01 18:32:42;;;;;;;11.23;10.60;;;;;;;7.51;100.00;101933.22;2015211;71;32882;-75
2022/04/01 18:38:27;;;;;;;12.50;11.90;;;;;;;7.31;100.00;101943.77;2016776;71;32895;-72
2022/04/01 18:44:11;;;;;;;13.17;12.53;;;;;;;7.15;100.00;101948.03;2008254;71;32803;-74
2022/04/01 18:49:57;;;;;;;14.03;13.30;;;;;;;6.97;100.00;101966.61;2006273;71;32805;-73
2022/04/01 18:55:41;;;;;;;13.63;12.93;;;;;;;6.99;100.00;101963.91;2017015;71;32900;-74
2022/04/01 19:01:29;;;;;;;12.87;12.17;;;;;;;6.83;100.00;101982.52;2008227;71;33370;-74
2022/04/01 19:07:19;;;;;;;13.97;13.27;;;;;;;6.73;100.00;101996.86;2007917;71;32893;-75
2022/04/01 19:13:08;;;;;;;15.63;14.73;;;;;;;6.59;100.00;102003.61;2013333;70;32959;-74
2022/04/01 19:18:56;;;;;;;16.53;15.67;;;;;;;6.54;100.00;102004.86;2009570;71;32893;-73
2022/04/01 19:24:48;;;;;;;22.60;21.20;;;;;;;6.46;100.00;102002.39;1997732;71;33361;-72
2022/04/01 19:30:31;;;;;;;19.23;18.10;;;;;;;6.47;100.00;102016.50;2014994;71;33302;-75
2022/04/01 19:36:16;;;;;;;18.97;17.90;;;;;;;6.45;100.00;102026.95;2003911;71;32798;-73
2022/04/01 19:42:02;;;;;;;20.47;19.47;;;;;;;6.29;100.00;102027.55;2011973;71;33313;-72
2022/04/01 19:47:47;;;;;;;22.37;21.20;;;;;;;6.08;100.00;102035.69;1995466;71;33222;-74
2022/04/01 19:53:31;;;;;;;22.93;21.73;;;;;;;6.01;100.00;102042.34;2011252;70;32866;-74
2022/04/01 19:59:17;;;;;;;24.50;23.20;;;;;;;6.04;100.00;102040.50;2002249;71;32905;-74
2022/04/01 20:05:01;;;;;;;24.67;23.27;;;;;;;5.87;100.00;102042.45;2007812;71;32845;-72
2022/04/01 20:10:45;;;;;;;26.57;24.97;;;;;;;5.81;100.00;102050.23;1995257;71;32827;-75
2022/04/01 20:16:31;;;;;;;26.60;25.00;;;;;;;5.73;100.00;102060.17;2002590;71;32767;-74
2022/04/01 20:22:15;;;;;;;27.87;26.27;;;;;;;5.69;100.00;102063.59;1997194;71;33365;-74
2022/04/01 20:28:00;;;;;;;28.20;26.40;;;;;;;5.56;100.00;102074.70;2009379;71;32858;-72
2022/04/01 20:33:44;;;;;;;30.97;29.00;;;;;;;5.27;100.00;102073.38;2004333;71;32864;-75
2022/04/01 20:39:28;;;;;;;31.93;29.83;;;;;;;5.34;100.00;102070.92;2010275;71;33286;-68
2022/04/01 20:45:12;;;;;;;34.63;32.43;;;;;;;5.32;100.00;102077.17;2018594;71;32996;-70
2022/04/01 20:50:57;;;;;;;35.20;33.20;;;;;;;5.25;100.00;102083.78;2007638;71;32871;-72
2022/04/01 20:56:42;;;;;;;37.10;34.90;;;;;;;5.24;100.00;102088.98;1980251;72;33002;-74
2022/04/01 21:02:25;;;;;;;39.60;37.23;;;;;;;5.10;100.00;102089.56;2013501;70;32823;-72
2022/04/01 21:08:11;;;;;;;45.17;42.33;;;;;;;4.98;100.00;102100.95;2010009;71;32841;-73
2022/04/01 21:13:55;;;;;;;47.53;44.83;;;;;;;5.02;100.00;102092.57;2009709;71;33386;-76
2022/04/01 21:19:39;;;;;;;51.90;49.00;;;;;;;4.88;100.00;102096.43;2006071;71;32836;-70
2022/04/01 21:27:20;;;;;;;55.53;52.23;;;;;;;4.82;100.00;102092.66;1998305;71;32821;-73
2022/04/01 21:31:14;;;;;;;58.57;55.23;;;;;;;4.79;100.00;102098.58;2009897;71;32897;-73
2022/04/01 21:36:59;;;;;;;60.27;56.73;;;;;;;4.86;100.00;102102.17;1998616;71;32875;-70
2022/04/01 21:42:45;;;;;;;60.43;56.93;;;;;;;4.83;100.00;102103.14;2009412;71;32919;-69
2022/04/01 21:48:30;;;;;;;61.80;58.20;;;;;;;4.72;100.00;102102.42;2009994;71;32827;-70
2022/04/01 21:54:14;;;;;;;61.80;58.17;;;;;;;4.56;100.00;102096.33;2000884;71;32941;-71
2022/04/01 21:59:58;;;;;;;64.17;60.00;;;;;;;4.68;100.00;102102.01;2016697;71;32942;-70
2022/04/01 22:05:45;;;;;;;62.67;58.77;;;;;;;4.48;100.00;102113.08;2016906;71;32854;-70
2022/04/01 22:11:30;;;;;;;64.53;60.63;;;;;;;4.43;100.00;102110.64;2009594;71;33394;-73
2022/04/01 22:17:16;;;;;;;63.63;59.83;;;;;;;4.61;100.00;102116.33;2016855;71;32868;-74
2022/04/01 22:23:00;;;;;;;65.13;61.20;;;;;;;4.12;100.00;102117.64;1995767;71;33232;-73
2022/04/01 22:28:45;;;;;;;65.50;61.30;;;;;;;3.99;100.00;102118.17;2006171;71;32808;-74
2022/04/01 22:34:29;;;;;;;67.17;62.87;;;;;;;4.26;100.00;102112.14;2008302;71;32865;-74
2022/04/01 22:40:15;;;;;;;65.27;61.27;;;;;;;4.16;100.00;102113.94;2018694;71;32959;-74
2022/04/01 22:46:00;;;;;;;65.53;61.37;;;;;;;3.65;100.00;102122.78;1994900;71;32815;-74
2022/04/01 22:57:46;;;;;;;64.37;60.17;;;;;;;3.74;100.00;102122.59;2006648;70;32751;-74
2022/04/01 23:03:35;;;;;;;65.97;61.80;;;;;;;3.88;100.00;102125.67;2004581;71;32825;-74
2022/04/01 23:09:17;;;;;;;65.57;61.07;;;;;;;3.68;100.00;102126.19;2013527;71;32860;-75
2022/04/01 23:15:01;;;;;;;65.77;61.67;;;;;;;3.58;100.00;102125.21;2005973;71;32867;-74
2022/04/01 23:20:47;;;;;;;64.67;60.70;;;;;;;3.63;100.00;102123.54;2014895;71;32832;-75
2022/04/01 23:26:35;;;;;;;64.10;59.97;;;;;;;3.37;100.00;102120.72;2015109;71;32874;-74
2022/04/01 23:32:19;;;;;;;65.90;61.70;;;;;;;3.50;100.00;102126.78;2007665;71;32806;-74
2022/04/01 23:38:03;;;;;;;65.57;61.57;;;;;;;3.55;100.00;102120.14;2014902;70;32805;-73
2022/04/01 23:43:47;;;;;;;65.17;60.97;;;;;;;3.41;100.00;102123.38;2000332;71;32831;-74
2022/04/01 23:49:31;;;;;;;66.07;62.07;;;;;;;3.61;100.00;102128.38;2017019;70;32849;-74
2022/04/01 23:55:16;;;;;;;67.00;62.80;;;;;;;3.31;100.00;102135.79;2004518;71;32757;-73
